createdAt,value
2023-03-05T00:01:31.872Z,0
2023-03-05T00:06:31.926Z,0
2023-03-05T00:11:31.930Z,0
2023-03-05T00:16:31.922Z,0
2023-03-05T00:21:31.901Z,0
2023-03-05T00:26:31.942Z,0
2023-03-05T00:31:32.065Z,0
2023-03-05T00:36:32.028Z,0
2023-03-05T00:41:32.021Z,0
2023-03-05T00:46:32.154Z,0
2023-03-05T00:51:32.048Z,0
2023-03-05T00:56:32.082Z,0
2023-03-05T01:01:32.209Z,0
2023-03-05T01:06:32.153Z,0
2023-03-05T01:11:32.160Z,0
2023-03-05T01:16:32.227Z,0
2023-03-05T01:21:32.150Z,0
2023-03-05T01:26:32.190Z,0
2023-03-05T01:31:32.245Z,0
2023-03-05T01:36:32.243Z,0
2023-03-05T01:41:32.253Z,0
2023-03-05T01:46:32.296Z,0
2023-03-05T01:51:32.298Z,0
2023-03-05T01:56:32.276Z,0
2023-03-05T02:01:32.394Z,0
2023-03-05T02:06:32.374Z,0
2023-03-05T02:11:32.348Z,0
2023-03-05T02:16:32.422Z,0
2023-03-05T02:21:32.377Z,0
2023-03-05T02:26:32.444Z,0
2023-03-05T02:31:32.468Z,0
2023-03-05T02:36:32.442Z,0
2023-03-05T02:41:32.464Z,0
2023-03-05T02:46:32.541Z,0
2023-03-05T02:51:32.561Z,0
2023-03-05T02:56:32.534Z,0
2023-03-05T03:01:32.554Z,0
2023-03-05T03:06:32.595Z,0
2023-03-05T03:11:32.613Z,0
2023-03-05T03:16:32.693Z,0
2023-03-05T03:21:32.637Z,0
2023-03-05T03:26:32.685Z,0
2023-03-05T03:31:32.695Z,0
2023-03-05T03:36:32.738Z,0
2023-03-05T03:41:32.747Z,0
2023-03-05T03:46:32.818Z,0
2023-03-05T03:51:32.751Z,0
2023-03-05T03:56:32.783Z,0
2023-03-05T04:01:32.799Z,0
2023-03-05T04:06:32.861Z,0
2023-03-05T04:11:32.844Z,0
2023-03-05T04:16:32.913Z,0
2023-03-05T04:21:32.923Z,0
2023-03-05T04:26:32.930Z,0
2023-03-05T04:31:32.995Z,0
2023-03-05T04:36:32.964Z,0
2023-03-05T04:41:32.973Z,0
2023-03-05T04:46:33.064Z,0
2023-03-05T04:51:33.008Z,0
2023-03-05T04:56:33.015Z,0
2023-03-05T05:01:33.122Z,0
2023-03-05T05:06:33.091Z,0
2023-03-05T05:11:33.118Z,0
2023-03-05T05:16:33.175Z,0
2023-03-05T05:21:33.120Z,0
2023-03-05T05:26:33.211Z,0
2023-03-05T05:31:33.211Z,0
2023-03-05T05:36:33.227Z,0
2023-03-05T05:41:33.271Z,0
2023-03-05T05:46:33.337Z,0
2023-03-05T05:51:33.278Z,0
2023-03-05T05:56:33.281Z,0
2023-03-05T06:01:33.369Z,0
2023-03-05T06:06:33.370Z,0
2023-03-05T06:11:33.330Z,0
2023-03-05T06:16:33.524Z,1
2023-03-05T06:21:33.413Z,3
2023-03-05T06:26:33.458Z,3
2023-03-05T06:31:35.082Z,2
2023-03-05T06:36:33.459Z,1
2023-03-05T06:41:33.471Z,2
2023-03-05T06:46:33.531Z,8
2023-03-05T06:51:33.511Z,9
2023-03-05T06:56:33.527Z,11
2023-03-05T07:01:33.590Z,9
2023-03-05T07:06:33.634Z,13
2023-03-05T07:11:33.625Z,17
2023-03-05T07:16:33.640Z,19
2023-03-05T07:21:33.625Z,24
2023-03-05T07:26:33.671Z,38
2023-03-05T07:31:33.694Z,45
2023-03-05T07:36:33.721Z,42
2023-03-05T07:41:33.742Z,35
2023-03-05T07:46:33.875Z,39
2023-03-05T07:51:33.763Z,45
2023-03-05T07:56:33.790Z,63
2023-03-05T08:01:33.801Z,93
2023-03-05T08:06:33.885Z,78
2023-03-05T08:11:33.855Z,75
2023-03-05T08:16:33.883Z,65
2023-03-05T08:21:33.937Z,59
2023-03-05T08:26:33.952Z,90
2023-03-05T08:31:33.964Z,113
2023-03-05T08:36:33.943Z,159
2023-03-05T08:41:33.967Z,176
2023-03-05T08:46:34.116Z,203
2023-03-05T08:51:34.007Z,205
2023-03-05T08:56:34.040Z,170
2023-03-05T09:01:34.141Z,172
2023-03-05T09:06:34.114Z,211
2023-03-05T09:11:34.124Z,256
2023-03-05T09:16:39.202Z,272
2023-03-05T09:21:39.198Z,251
2023-03-05T09:26:39.231Z,454
2023-03-05T09:31:39.317Z,462
2023-03-05T09:36:39.270Z,448
2023-03-05T09:41:39.288Z,317
2023-03-05T09:46:39.261Z,301
2023-03-05T09:51:39.283Z,288
2023-03-05T09:56:39.328Z,285
2023-03-05T10:01:39.377Z,312
2023-03-05T10:06:39.366Z,323
2023-03-05T10:11:39.410Z,241
2023-03-05T10:16:39.545Z,322
2023-03-05T10:21:40.306Z,361
2023-03-05T10:26:39.432Z,278
2023-03-05T10:31:39.514Z,263
2023-03-05T10:36:39.496Z,250
2023-03-05T10:41:39.530Z,228
2023-03-05T10:46:39.527Z,451
2023-03-05T10:51:39.584Z,685
2023-03-05T10:56:39.562Z,636
2023-03-05T11:01:39.661Z,728
2023-03-05T11:06:40.115Z,482
2023-03-05T11:11:40.151Z,236
2023-03-05T11:16:40.174Z,134
2023-03-05T11:21:40.217Z,541
2023-03-05T11:26:40.182Z,659
2023-03-05T11:31:40.217Z,846
2023-03-05T11:36:40.241Z,397
2023-03-05T11:41:40.306Z,76
2023-03-05T11:46:40.381Z,107
2023-03-05T11:51:40.308Z,239
2023-03-05T11:56:40.558Z,466
2023-03-05T12:01:40.645Z,264
2023-03-05T12:06:40.826Z,462
2023-03-05T12:11:40.903Z,681
2023-03-05T12:16:40.660Z,771
2023-03-05T12:21:41.225Z,786
2023-03-05T12:26:40.809Z,548
2023-03-05T12:31:40.773Z,375
2023-03-05T12:36:40.872Z,593
2023-03-05T12:41:40.779Z,669
2023-03-05T12:46:40.881Z,557
2023-03-05T12:51:40.833Z,546
2023-03-05T12:56:40.835Z,274
2023-03-05T13:01:40.859Z,180
2023-03-05T13:06:40.878Z,161
2023-03-05T13:11:40.901Z,192
2023-03-05T13:16:40.943Z,177
2023-03-05T13:21:40.935Z,137
2023-03-05T13:26:40.959Z,274
2023-03-05T13:31:41.053Z,397
2023-03-05T13:36:41.002Z,323
2023-03-05T13:40:12.326Z,186
2023-03-05T13:41:41.032Z,222
2023-03-05T13:46:41.050Z,183
2023-03-05T13:51:41.594Z,129
2023-03-05T13:56:41.352Z,172
2023-03-05T14:01:41.376Z,304
2023-03-05T14:06:41.381Z,316
2023-03-05T14:11:41.375Z,243
2023-03-05T14:16:41.436Z,144
2023-03-05T14:21:41.417Z,59
2023-03-05T14:26:41.464Z,30
2023-03-05T14:31:41.473Z,14
2023-03-05T14:36:41.501Z,19
2023-03-05T14:41:41.512Z,16
2023-03-05T14:46:41.510Z,30
2023-03-05T14:51:41.741Z,64
2023-03-05T14:56:41.566Z,106
2023-03-05T15:01:41.912Z,77
2023-03-05T15:06:41.847Z,49
2023-03-05T15:11:41.859Z,88
2023-03-05T15:16:41.969Z,134
2023-03-05T15:21:41.942Z,123
2023-03-05T15:26:42.202Z,78
2023-03-05T15:31:42.202Z,61
2023-03-05T15:36:42.250Z,62
2023-03-05T15:41:42.232Z,59
2023-03-05T15:46:42.302Z,50
2023-03-05T15:51:42.288Z,46
2023-03-05T15:56:42.358Z,40
2023-03-05T16:01:27.114Z,29
2023-03-05T16:01:42.312Z,23
2023-03-05T16:06:42.360Z,20
2023-03-05T16:06:43.704Z,21
2023-03-05T16:11:42.351Z,19
2023-03-05T16:16:42.452Z,16
2023-03-05T16:21:42.444Z,16
2023-03-05T16:26:42.417Z,13
2023-03-05T16:31:42.578Z,21
2023-03-05T16:36:42.758Z,11
2023-03-05T16:41:42.767Z,10
2023-03-05T16:46:42.813Z,5
2023-03-05T16:51:42.775Z,3
2023-03-05T16:56:42.827Z,4
2023-03-05T17:01:42.826Z,1
2023-03-05T17:06:42.895Z,0
2023-03-05T17:11:42.874Z,0
2023-03-05T17:16:42.997Z,0
2023-03-05T17:21:42.964Z,0
2023-03-05T17:26:42.952Z,0
2023-03-05T17:31:42.995Z,0
2023-03-05T17:36:43.025Z,0
2023-03-05T17:41:43.005Z,0
2023-03-05T17:46:43.021Z,0
2023-03-05T17:51:43.065Z,0
2023-03-05T17:56:43.088Z,0
2023-03-05T18:01:43.104Z,0
2023-03-05T18:06:43.103Z,0
2023-03-05T18:11:43.149Z,0
2023-03-05T18:16:43.199Z,0
2023-03-05T18:21:43.184Z,0
2023-03-05T18:26:43.182Z,0
2023-03-05T18:31:43.226Z,0
2023-03-05T18:36:43.265Z,0
2023-03-05T18:40:59.316Z,0
2023-03-05T18:41:43.238Z,0
2023-03-05T18:46:43.258Z,0
2023-03-05T18:51:43.266Z,0
2023-03-05T18:56:43.315Z,0
2023-03-05T19:01:43.487Z,0
2023-03-05T19:06:43.347Z,0
2023-03-05T19:11:43.383Z,0
2023-03-05T19:16:43.429Z,0
2023-03-05T19:21:43.419Z,0
2023-03-05T19:26:43.423Z,0
2023-03-05T19:31:43.422Z,0
2023-03-05T19:36:43.483Z,0
2023-03-05T19:41:43.644Z,0
2023-03-05T19:46:43.500Z,0
2023-03-05T19:51:43.506Z,0
2023-03-05T19:56:43.573Z,0
2023-03-05T20:01:43.624Z,0
2023-03-05T20:06:43.577Z,0
2023-03-05T20:11:43.872Z,0
2023-03-05T20:16:43.884Z,0
2023-03-05T20:21:43.881Z,0
2023-03-05T20:26:43.944Z,0
2023-03-05T20:31:43.944Z,0
2023-03-05T20:36:44.003Z,0
2023-03-05T20:41:43.957Z,0
2023-03-05T20:46:44.003Z,0
2023-03-05T20:51:44.030Z,0
2023-03-05T20:56:44.052Z,0
2023-03-05T21:01:44.177Z,0
2023-03-05T21:06:44.050Z,0
2023-03-05T21:11:44.085Z,0
2023-03-05T21:16:44.182Z,0
2023-03-05T21:21:44.118Z,0
2023-03-05T21:26:44.130Z,0
2023-03-05T21:31:44.255Z,0
2023-03-05T21:36:44.216Z,0
2023-03-05T21:41:44.243Z,0
2023-03-05T21:46:44.216Z,0
2023-03-05T21:51:44.262Z,0
2023-03-05T21:56:44.330Z,0
2023-03-05T22:01:44.262Z,0
2023-03-05T22:06:44.330Z,0
2023-03-05T22:11:44.308Z,0
2023-03-05T22:16:44.424Z,0
2023-03-05T22:21:44.368Z,0
2023-03-05T22:26:44.370Z,0
2023-03-05T22:31:44.413Z,0
2023-03-05T22:36:44.457Z,0
2023-03-05T22:41:44.458Z,0
2023-03-05T22:46:44.453Z,0
2023-03-05T22:51:44.495Z,0
2023-03-05T22:56:44.550Z,0
2023-03-05T23:01:44.521Z,0
2023-03-05T23:06:44.570Z,0
2023-03-05T23:11:44.590Z,0
2023-03-05T23:16:44.642Z,0
2023-03-05T23:21:44.647Z,0
2023-03-05T23:26:44.647Z,0
2023-03-05T23:31:44.713Z,0
2023-03-05T23:36:44.691Z,0
2023-03-05T23:41:44.721Z,0
2023-03-05T23:46:44.749Z,0
2023-03-05T23:51:44.750Z,0
2023-03-05T23:56:44.768Z,0
